createdAt,value
2017-10-05T00:00:01.223Z,10.87
2017-10-05T00:00:06.225Z,10.50
2017-10-05T00:00:11.920Z,11.07
2017-10-05T00:00:16.175Z,11.40
2017-10-05T00:00:21.270Z,11.30
2017-10-05T00:00:25.682Z,11.67
2017-10-05T00:00:30.040Z,12.60
2017-10-05T00:00:34.339Z,12.20
2017-10-05T00:00:38.625Z,11.85
2017-10-05T00:00:43.673Z,11.10
2017-10-05T00:00:47.914Z,10.97
2017-10-05T00:00:52.913Z,10.27
2017-10-05T00:00:57.270Z,10.10
2017-10-05T00:01:01.501Z,9.30
2017-10-05T00:01:05.759Z,9.30
2017-10-05T00:01:10.017Z,8.60
2017-10-05T00:01:14.288Z,8.40
2017-10-05T00:01:18.536Z,8.50
2017-10-05T00:01:23.631Z,8.45
2017-10-05T00:01:27.861Z,7.50
2017-10-05T00:01:32.854Z,7.00
2017-10-05T00:01:37.157Z,7.07
2017-10-05T00:01:41.404Z,7.60
2017-10-05T00:01:45.647Z,7.80
2017-10-05T00:01:49.889Z,7.77
2017-10-05T00:01:54.877Z,7.30
2017-10-05T00:01:59.153Z,7.10
2017-10-05T00:02:03.407Z,6.70
2017-10-05T00:02:08.425Z,6.75
2017-10-05T00:02:13.425Z,7.07
2017-10-05T00:02:18.436Z,7.47
2017-10-05T00:02:23.452Z,7.23
2017-10-05T00:02:27.722Z,7.35
2017-10-05T00:02:31.958Z,7.15
2017-10-05T00:02:37.013Z,7.15
2017-10-05T00:02:41.276Z,6.93
2017-10-05T00:02:45.527Z,6.90
2017-10-05T00:02:49.798Z,7.10
2017-10-05T00:02:54.814Z,6.95
2017-10-05T00:02:59.838Z,7.00
2017-10-05T00:03:04.078Z,7.07
2017-10-05T00:03:09.086Z,7.05
2017-10-05T00:03:13.372Z,6.80
2017-10-05T00:03:17.663Z,6.60
2017-10-05T00:03:21.998Z,6.65
2017-10-05T00:03:26.229Z,6.45
2017-10-05T00:03:30.556Z,6.73
2017-10-05T00:03:35.559Z,6.85
2017-10-05T00:03:40.561Z,6.70
2017-10-05T00:03:44.818Z,6.63
2017-10-05T00:03:49.062Z,6.95
2017-10-05T00:03:53.358Z,6.97
2017-10-05T00:03:57.615Z,6.70
2017-10-05T00:04:01.844Z,7.25
2017-10-05T00:04:06.091Z,7.75
2017-10-05T00:04:11.099Z,7.97
2017-10-05T00:04:16.099Z,8.47
2017-10-05T00:04:20.400Z,8.53
2017-10-05T00:04:24.651Z,8.25
2017-10-05T00:04:28.895Z,8.65
2017-10-05T00:04:33.117Z,9.05
2017-10-05T00:04:38.149Z,9.27
2017-10-05T00:04:43.157Z,9.20
2017-10-05T00:04:48.236Z,9.80
2017-10-05T00:04:53.260Z,10.20
2017-10-05T00:04:57.506Z,10.20
2017-10-05T00:05:01.751Z,9.85
2017-10-05T00:05:06.053Z,9.55
2017-10-05T00:05:10.332Z,9.43
2017-10-05T00:05:14.584Z,9.30
2017-10-05T00:05:18.827Z,9.30
2017-10-05T00:05:23.089Z,9.47
2017-10-05T00:05:28.105Z,9.05
2017-10-05T00:05:33.135Z,8.70
2017-10-05T00:05:38.182Z,8.60
2017-10-05T00:05:42.465Z,9.27
2017-10-05T00:05:46.750Z,8.70
2017-10-05T00:05:51.766Z,7.93
2017-10-05T00:05:56.071Z,8.10
2017-10-05T00:06:01.856Z,8.30
2017-10-05T00:06:06.106Z,8.40
2017-10-05T00:06:10.358Z,8.65
2017-10-05T00:06:14.615Z,8.25
2017-10-05T00:06:19.635Z,8.13
2017-10-05T00:06:23.987Z,8.60
2017-10-05T00:06:28.201Z,8.90
2017-10-05T00:06:32.442Z,9.10
2017-10-05T00:06:36.727Z,9.00
2017-10-05T00:06:40.947Z,8.70
2017-10-05T00:06:45.193Z,9.00
2017-10-05T00:06:49.441Z,9.10
2017-10-05T00:06:53.665Z,9.00
2017-10-05T00:06:57.931Z,8.80
2017-10-05T00:07:02.196Z,8.75
2017-10-05T00:07:06.443Z,8.25
2017-10-05T00:07:10.721Z,8.00
2017-10-05T00:07:15.763Z,8.30
2017-10-05T00:07:20.009Z,8.27
2017-10-05T00:07:24.267Z,8.05
2017-10-05T00:07:28.512Z,7.63
2017-10-05T00:07:32.741Z,8.40
2017-10-05T00:07:37.758Z,9.90
2017-10-05T00:07:42.811Z,9.70
2017-10-05T00:07:47.108Z,9.70
2017-10-05T00:07:52.104Z,10.15
2017-10-05T00:07:57.271Z,9.80
2017-10-05T00:08:01.508Z,9.60
2017-10-05T00:08:05.755Z,9.50
2017-10-05T00:08:10.070Z,9.40
2017-10-05T00:08:14.302Z,9.50
2017-10-05T00:08:18.556Z,9.35
2017-10-05T00:08:22.833Z,9.55
2017-10-05T00:08:27.078Z,9.70
2017-10-05T00:08:31.349Z,9.10
2017-10-05T00:08:35.587Z,7.65
2017-10-05T00:08:39.870Z,7.40
2017-10-05T00:08:44.106Z,7.30
2017-10-05T00:08:49.117Z,7.07
2017-10-05T00:08:53.361Z,6.90
2017-10-05T00:08:57.618Z,7.25
2017-10-05T00:09:01.834Z,7.85
2017-10-05T00:09:06.833Z,8.43
2017-10-05T00:09:11.109Z,8.30
2017-10-05T00:09:15.380Z,8.20
2017-10-05T00:09:20.371Z,8.30
2017-10-05T00:09:25.374Z,7.97
2017-10-05T00:09:29.628Z,8.07
2017-10-05T00:09:33.857Z,8.40
2017-10-05T00:09:38.226Z,9.10
2017-10-05T00:09:42.981Z,8.95
2017-10-05T00:09:47.927Z,9.00
2017-10-05T00:09:52.938Z,9.00
2017-10-05T00:09:57.951Z,9.33
2017-10-05T00:10:02.234Z,8.90
2017-10-05T00:10:06.472Z,8.75
2017-10-05T00:10:11.483Z,8.70
2017-10-05T00:10:16.515Z,8.93
2017-10-05T00:10:20.745Z,9.18
2017-10-05T00:10:24.995Z,9.30
2017-10-05T00:10:30.042Z,9.40
2017-10-05T00:10:34.258Z,8.80
2017-10-05T00:10:38.511Z,7.80
2017-10-05T00:10:43.583Z,7.90
2017-10-05T00:10:47.824Z,7.77
2017-10-05T00:10:52.050Z,7.85
2017-10-05T00:10:56.278Z,7.55
2017-10-05T00:11:00.519Z,7.90
2017-10-05T00:11:04.774Z,8.03
2017-10-05T00:11:09.019Z,8.00
2017-10-05T00:11:13.274Z,7.85
2017-10-05T00:11:17.509Z,7.80
2017-10-05T00:11:21.758Z,7.65
2017-10-05T00:11:26.016Z,7.30
2017-10-05T00:11:30.271Z,7.35
2017-10-05T00:11:34.510Z,7.23
2017-10-05T00:11:38.960Z,7.40
2017-10-05T00:11:44.016Z,7.25
2017-10-05T00:11:48.335Z,7.20
2017-10-05T00:11:52.577Z,6.97
2017-10-05T00:11:56.919Z,6.85
2017-10-05T00:12:01.177Z,6.05
2017-10-05T00:12:05.440Z,5.90
2017-10-05T00:12:09.690Z,5.90
2017-10-05T00:12:13.927Z,5.50
2017-10-05T00:12:18.182Z,5.40
2017-10-05T00:12:22.425Z,5.40
2017-10-05T00:12:26.675Z,5.35
2017-10-05T00:12:30.918Z,5.40
2017-10-05T00:12:35.183Z,5.47
2017-10-05T00:12:40.176Z,5.55
2017-10-05T00:12:45.198Z,5.57
2017-10-05T00:12:50.246Z,5.73
2017-10-05T00:12:54.497Z,5.93
2017-10-05T00:12:58.733Z,6.25
2017-10-05T00:13:02.994Z,6.30
2017-10-05T00:13:07.229Z,6.43
2017-10-05T00:13:11.476Z,6.85
2017-10-05T00:13:15.726Z,8.75
2017-10-05T00:13:19.970Z,9.10
2017-10-05T00:13:24.219Z,9.10
2017-10-05T00:13:29.240Z,9.15
2017-10-05T00:13:34.234Z,9.40
2017-10-05T00:13:38.483Z,9.57
2017-10-05T00:13:42.735Z,9.75
2017-10-05T00:13:47.002Z,9.60
2017-10-05T00:13:51.236Z,9.20
2017-10-05T00:13:55.488Z,9.15
2017-10-05T00:13:59.734Z,9.45
2017-10-05T00:14:03.994Z,9.53
2017-10-05T00:14:08.239Z,9.30
2017-10-05T00:14:12.568Z,8.95
2017-10-05T00:14:16.864Z,7.00
2017-10-05T00:14:21.090Z,7.35
2017-10-05T00:14:25.351Z,7.50
2017-10-05T00:14:30.427Z,7.75
2017-10-05T00:14:34.676Z,7.43
2017-10-05T00:14:39.693Z,7.30
2017-10-05T00:14:44.717Z,7.03
2017-10-05T00:14:49.754Z,7.53
2017-10-05T00:14:54.035Z,8.40
2017-10-05T00:14:59.057Z,8.20
2017-10-05T00:15:03.333Z,8.20
2017-10-05T00:15:07.571Z,8.70
2017-10-05T00:15:12.600Z,8.90
2017-10-05T00:15:16.873Z,8.80
2017-10-05T00:15:21.122Z,8.50
2017-10-05T00:15:25.361Z,8.20
2017-10-05T00:15:30.460Z,7.80
2017-10-05T00:15:35.480Z,9.30
2017-10-05T00:15:39.716Z,9.90
2017-10-05T00:15:44.713Z,9.95
2017-10-05T00:15:49.726Z,9.47
2017-10-05T00:15:53.963Z,8.60
2017-10-05T00:15:58.189Z,8.00
2017-10-05T00:16:02.432Z,8.00
2017-10-05T00:16:07.451Z,7.35
2017-10-05T00:16:12.468Z,6.97
2017-10-05T00:16:17.483Z,7.10
2017-10-05T00:16:21.737Z,7.17
2017-10-05T00:16:25.974Z,7.60
2017-10-05T00:16:30.291Z,7.47
2017-10-05T00:16:35.297Z,5.85
2017-10-05T00:16:39.548Z,5.37
2017-10-05T00:16:43.838Z,5.70
2017-10-05T00:16:48.071Z,6.50
2017-10-05T00:16:53.079Z,6.77
2017-10-05T00:16:57.369Z,7.63
2017-10-05T00:17:01.618Z,7.65
2017-10-05T00:17:05.863Z,7.55
2017-10-05T00:17:10.118Z,7.73
2017-10-05T00:17:14.371Z,7.90
2017-10-05T00:17:18.628Z,7.90
2017-10-05T00:17:23.666Z,7.75
2017-10-05T00:17:27.925Z,7.73
2017-10-05T00:17:32.189Z,8.30
2017-10-05T00:17:36.458Z,9.00
2017-10-05T00:17:40.662Z,8.85
2017-10-05T00:17:44.926Z,8.80
2017-10-05T00:17:49.159Z,8.25
2017-10-05T00:17:54.155Z,8.40
2017-10-05T00:17:58.409Z,7.87
2017-10-05T00:18:02.630Z,8.05
2017-10-05T00:18:06.898Z,8.30
2017-10-05T00:18:11.133Z,8.50
2017-10-05T00:18:15.392Z,8.45
2017-10-05T00:18:19.635Z,8.70
2017-10-05T00:18:23.950Z,8.53
2017-10-05T00:18:28.200Z,8.35
2017-10-05T00:18:32.434Z,8.20
2017-10-05T00:18:36.690Z,7.73
2017-10-05T00:18:40.923Z,7.55
2017-10-05T00:18:45.173Z,7.30
2017-10-05T00:18:49.460Z,7.25
2017-10-05T00:18:53.687Z,7.40
2017-10-05T00:18:57.923Z,8.05
2017-10-05T00:19:02.153Z,8.20
2017-10-05T00:19:06.440Z,8.15
2017-10-05T00:19:10.703Z,7.73
2017-10-05T00:19:14.965Z,7.45
2017-10-05T00:19:19.962Z,7.20
2017-10-05T00:19:24.206Z,7.40
2017-10-05T00:19:28.445Z,8.00
2017-10-05T00:19:32.687Z,8.75
2017-10-05T00:19:37.701Z,8.80
2017-10-05T00:19:42.712Z,8.97
2017-10-05T00:19:47.714Z,9.37
2017-10-05T00:19:51.968Z,9.30
2017-10-05T00:19:56.215Z,8.85
2017-10-05T00:20:00.477Z,8.00
2017-10-05T00:20:04.754Z,8.15
2017-10-05T00:20:08.989Z,8.30
2017-10-05T00:20:13.225Z,8.47
2017-10-05T00:20:17.469Z,8.55
2017-10-05T00:20:21.715Z,8.45
2017-10-05T00:20:25.947Z,8.10
2017-10-05T00:20:30.970Z,7.43
2017-10-05T00:20:35.959Z,6.60
2017-10-05T00:20:40.228Z,6.47
2017-10-05T00:20:44.458Z,6.55
2017-10-05T00:20:48.712Z,6.35
2017-10-05T00:20:52.982Z,6.10
2017-10-05T00:20:57.976Z,6.43
2017-10-05T00:21:03.006Z,6.57
2017-10-05T00:21:07.268Z,6.10
2017-10-05T00:21:11.526Z,6.00
2017-10-05T00:21:15.758Z,6.15
2017-10-05T00:21:20.057Z,6.43
2017-10-05T00:21:24.325Z,6.75
2017-10-05T00:21:29.337Z,7.35
2017-10-05T00:21:34.356Z,7.43
2017-10-05T00:21:39.356Z,7.63
2017-10-05T00:21:43.616Z,7.50
2017-10-05T00:21:47.855Z,7.53
2017-10-05T00:21:52.108Z,7.70
2017-10-05T00:21:56.376Z,7.90
2017-10-05T00:22:00.590Z,8.15
2017-10-05T00:22:04.836Z,9.33
2017-10-05T00:22:09.107Z,10.00
2017-10-05T00:22:13.363Z,10.15
2017-10-05T00:22:18.371Z,10.05
2017-10-05T00:22:22.614Z,10.00
2017-10-05T00:22:26.867Z,9.73
2017-10-05T00:22:31.148Z,10.30
2017-10-05T00:22:35.394Z,10.40
2017-10-05T00:22:39.638Z,10.60
2017-10-05T00:22:44.656Z,11.15
2017-10-05T00:22:48.929Z,11.70
2017-10-05T00:22:53.178Z,11.80
2017-10-05T00:22:57.417Z,11.30
2017-10-05T00:23:01.662Z,10.57
2017-10-05T00:23:06.681Z,9.85
2017-10-05T00:23:10.928Z,9.73
2017-10-05T00:23:26.524Z,10.56
2017-10-05T00:23:30.777Z,9.75
2017-10-05T00:23:35.798Z,9.80
2017-10-05T00:23:40.032Z,9.40
2017-10-05T00:23:44.274Z,8.55
2017-10-05T00:23:48.518Z,8.43
2017-10-05T00:23:52.754Z,8.70
2017-10-05T00:23:57.076Z,8.80
2017-10-05T00:24:01.308Z,9.40
2017-10-05T00:24:06.350Z,9.75
2017-10-05T00:24:11.396Z,9.80
2017-10-05T00:24:15.652Z,9.03
2017-10-05T00:24:20.660Z,8.70
2017-10-05T00:24:25.668Z,8.20
2017-10-05T00:24:29.988Z,8.73
2017-10-05T00:24:34.992Z,9.30
2017-10-05T00:24:40.020Z,9.80
2017-10-05T00:24:45.041Z,10.17
2017-10-05T00:24:50.055Z,9.83
2017-10-05T00:24:55.075Z,9.67
2017-10-05T00:25:00.097Z,10.47
2017-10-05T00:25:04.342Z,10.33
2017-10-05T00:25:08.606Z,9.70
2017-10-05T00:25:12.856Z,9.70
2017-10-05T00:25:17.180Z,10.10
2017-10-05T00:25:21.436Z,10.35
2017-10-05T00:25:25.690Z,10.25
2017-10-05T00:25:30.700Z,9.90
2017-10-05T00:25:35.796Z,9.57
2017-10-05T00:25:40.034Z,9.30
2017-10-05T00:25:45.080Z,9.35
2017-10-05T00:25:49.382Z,9.37
2017-10-05T00:25:53.606Z,9.85
2017-10-05T00:25:57.904Z,9.27
2017-10-05T00:26:02.148Z,8.75
2017-10-05T00:26:07.164Z,9.05
2017-10-05T00:26:12.173Z,9.20
2017-10-05T00:26:16.424Z,9.07
2017-10-05T00:26:20.704Z,8.80
2017-10-05T00:26:25.692Z,8.90
2017-10-05T00:26:29.972Z,9.33
2017-10-05T00:26:34.193Z,9.25
2017-10-05T00:26:38.445Z,9.05
2017-10-05T00:26:42.688Z,9.07
2017-10-05T00:26:46.917Z,8.70
2017-10-05T00:26:51.149Z,7.95
2017-10-05T00:26:55.389Z,7.80
2017-10-05T00:27:00.419Z,7.23
2017-10-05T00:27:05.429Z,7.03
2017-10-05T00:27:09.686Z,7.30
2017-10-05T00:27:13.955Z,7.25
2017-10-05T00:27:18.973Z,7.05
2017-10-05T00:27:23.230Z,6.77
2017-10-05T00:27:27.471Z,6.20
2017-10-05T00:27:31.707Z,6.50
2017-10-05T00:27:35.956Z,6.60
2017-10-05T00:27:40.952Z,6.50
2017-10-05T00:27:45.189Z,6.60
2017-10-05T00:27:49.433Z,6.53
2017-10-05T00:27:53.673Z,6.50
2017-10-05T00:27:58.689Z,6.85
2017-10-05T00:28:04.738Z,7.00
2017-10-05T00:28:09.150Z,7.03
2017-10-05T00:28:13.412Z,6.90
2017-10-05T00:28:17.676Z,7.10
2017-10-05T00:28:21.918Z,7.55
2017-10-05T00:28:26.158Z,7.70
2017-10-05T00:28:30.971Z,7.00
2017-10-05T00:28:35.226Z,6.97
2017-10-05T00:28:39.463Z,7.35
2017-10-05T00:28:43.711Z,7.35
2017-10-05T00:28:47.951Z,8.00
2017-10-05T00:28:52.960Z,8.03
2017-10-05T00:28:58.022Z,7.80
2017-10-05T00:29:02.277Z,7.70
2017-10-05T00:29:07.314Z,8.05
2017-10-05T00:29:12.339Z,7.80
2017-10-05T00:29:17.426Z,8.60
2017-10-05T00:29:21.663Z,9.07
2017-10-05T00:29:25.902Z,9.30
2017-10-05T00:29:30.894Z,9.95
2017-10-05T00:29:35.148Z,9.63
2017-10-05T00:29:39.394Z,8.95
2017-10-05T00:29:43.688Z,9.20
2017-10-05T00:29:47.948Z,8.90
2017-10-05T00:29:52.191Z,8.85
2017-10-05T00:29:56.437Z,9.00
2017-10-05T00:30:00.680Z,8.75
2017-10-05T00:30:04.929Z,8.40
2017-10-05T00:30:09.174Z,8.70
2017-10-05T00:30:14.174Z,8.20
2017-10-05T00:30:19.182Z,8.50
2017-10-05T00:30:23.422Z,8.23
2017-10-05T00:30:27.663Z,7.60
2017-10-05T00:30:31.925Z,7.45
2017-10-05T00:30:36.182Z,8.15
2017-10-05T00:30:40.422Z,8.60
2017-10-05T00:30:44.657Z,8.43
2017-10-05T00:30:48.913Z,8.65
2017-10-05T00:30:53.170Z,8.55
2017-10-05T00:30:57.427Z,8.50
2017-10-05T00:31:01.672Z,9.13
2017-10-05T00:31:05.932Z,9.45
2017-10-05T00:31:10.214Z,8.80
2017-10-05T00:31:14.459Z,8.47
2017-10-05T00:31:18.760Z,7.30
2017-10-05T00:31:23.008Z,7.65
2017-10-05T00:31:28.078Z,7.90
2017-10-05T00:31:32.327Z,7.77
2017-10-05T00:31:37.360Z,7.20
2017-10-05T00:31:41.725Z,6.90
2017-10-05T00:31:45.954Z,6.80
2017-10-05T00:31:50.218Z,6.75
2017-10-05T00:31:54.467Z,6.90
2017-10-05T00:31:58.704Z,7.40
2017-10-05T00:32:02.955Z,7.25
2017-10-05T00:32:07.200Z,8.00
2017-10-05T00:32:11.464Z,8.07
2017-10-05T00:32:15.716Z,8.10
2017-10-05T00:32:19.942Z,8.10
2017-10-05T00:32:24.962Z,7.73
2017-10-05T00:32:30.055Z,8.23
2017-10-05T00:32:34.283Z,8.23
2017-10-05T00:32:39.304Z,8.40
2017-10-05T00:32:44.348Z,8.93
2017-10-05T00:32:48.584Z,9.40
2017-10-05T00:32:52.828Z,10.25
2017-10-05T00:32:57.124Z,10.40
2017-10-05T00:33:01.362Z,10.10
2017-10-05T00:33:05.605Z,9.30
2017-10-05T00:33:09.851Z,9.30
2017-10-05T00:33:14.108Z,9.20
2017-10-05T00:33:18.380Z,9.60
2017-10-05T00:33:22.624Z,9.90
2017-10-05T00:33:27.637Z,9.80
2017-10-05T00:33:31.877Z,9.35
2017-10-05T00:33:36.125Z,9.45
2017-10-05T00:33:41.147Z,9.05
2017-10-05T00:33:45.374Z,8.97
2017-10-05T00:33:49.640Z,8.20
2017-10-05T00:33:53.849Z,8.00
2017-10-05T00:33:58.890Z,8.05
2017-10-05T00:34:03.146Z,8.27
2017-10-05T00:34:07.376Z,8.20
2017-10-05T00:34:12.390Z,8.35
2017-10-05T00:34:17.411Z,8.53
2017-10-05T00:34:22.479Z,7.80
2017-10-05T00:34:26.767Z,7.97
2017-10-05T00:34:31.030Z,7.80
2017-10-05T00:34:35.274Z,7.80
2017-10-05T00:34:39.513Z,7.60
2017-10-05T00:34:44.553Z,7.37
2017-10-05T00:34:49.576Z,7.23
2017-10-05T00:34:53.871Z,7.33
2017-10-05T00:34:58.124Z,7.10
2017-10-05T00:35:02.383Z,6.75
2017-10-05T00:35:06.638Z,6.67
2017-10-05T00:35:10.857Z,6.80
2017-10-05T00:35:15.114Z,7.50
2017-10-05T00:35:19.364Z,7.70
2017-10-05T00:35:24.387Z,7.97
2017-10-05T00:35:28.651Z,7.97
2017-10-05T00:35:32.883Z,8.35
2017-10-05T00:35:37.937Z,8.30
2017-10-05T00:35:42.175Z,8.80
2017-10-05T00:35:47.228Z,9.13
2017-10-05T00:35:52.242Z,8.60
2017-10-05T00:35:57.267Z,8.47
2017-10-05T00:36:02.271Z,8.20
2017-10-05T00:36:06.544Z,8.53
2017-10-05T00:36:10.876Z,8.75
2017-10-05T00:36:15.894Z,8.80
2017-10-05T00:36:20.966Z,8.63
2017-10-05T00:36:25.242Z,8.35
2017-10-05T00:36:29.560Z,8.15
2017-10-05T00:36:33.786Z,8.15
2017-10-05T00:36:38.038Z,8.10
2017-10-05T00:36:42.307Z,7.30
2017-10-05T00:36:47.331Z,7.10
2017-10-05T00:36:52.344Z,6.93
2017-10-05T00:36:57.353Z,6.90
2017-10-05T00:37:01.610Z,7.10
2017-10-05T00:37:05.821Z,6.75
2017-10-05T00:37:10.110Z,6.40
2017-10-05T00:37:14.342Z,5.60
2017-10-05T00:37:18.593Z,5.60
2017-10-05T00:37:22.861Z,5.90
2017-10-05T00:37:27.092Z,6.87
2017-10-05T00:37:31.336Z,6.85
2017-10-05T00:37:35.561Z,6.75
2017-10-05T00:37:40.565Z,7.15
2017-10-05T00:37:44.840Z,7.40
2017-10-05T00:37:49.083Z,7.30
2017-10-05T00:37:54.074Z,7.45
2017-10-05T00:37:58.329Z,7.70
2017-10-05T00:38:02.575Z,7.60
2017-10-05T00:38:06.840Z,7.77
2017-10-05T00:38:11.070Z,7.75
2017-10-05T00:38:15.302Z,7.60
2017-10-05T00:38:19.575Z,7.60
2017-10-05T00:38:23.830Z,6.93
2017-10-05T00:38:28.070Z,6.60
2017-10-05T00:38:32.350Z,6.50
2017-10-05T00:38:36.618Z,6.67
2017-10-05T00:38:40.863Z,6.75
2017-10-05T00:38:45.120Z,7.05
2017-10-05T00:38:49.389Z,7.50
2017-10-05T00:38:53.630Z,7.17
2017-10-05T00:38:57.873Z,6.95
2017-10-05T00:39:02.130Z,7.35
2017-10-05T00:39:06.388Z,7.35
2017-10-05T00:39:10.645Z,7.60
2017-10-05T00:39:14.889Z,7.90
2017-10-05T00:39:19.139Z,7.80
2017-10-05T00:39:23.366Z,7.55
2017-10-05T00:39:27.613Z,7.80
2017-10-05T00:39:32.634Z,8.05
2017-10-05T00:39:36.905Z,7.73
2017-10-05T00:39:41.149Z,7.70
2017-10-05T00:39:45.393Z,7.33
2017-10-05T00:39:49.672Z,7.10
2017-10-05T00:39:53.922Z,7.20
2017-10-05T00:39:58.913Z,7.25
2017-10-05T00:40:03.205Z,7.20
2017-10-05T00:40:07.455Z,7.10
2017-10-05T00:40:11.686Z,6.65
2017-10-05T00:40:15.941Z,7.10
2017-10-05T00:40:20.945Z,8.00
2017-10-05T00:40:25.186Z,8.00
2017-10-05T00:40:29.531Z,7.80
2017-10-05T00:40:33.752Z,8.00
2017-10-05T00:40:37.996Z,8.00
2017-10-05T00:40:42.252Z,8.10
2017-10-05T00:40:46.495Z,8.90
2017-10-05T00:40:50.729Z,9.05
2017-10-05T00:40:54.985Z,9.60
2017-10-05T00:40:59.224Z,9.37
2017-10-05T00:41:03.489Z,9.10
2017-10-05T00:41:07.793Z,9.25
2017-10-05T00:41:12.034Z,9.60
2017-10-05T00:41:16.324Z,8.80
2017-10-05T00:41:20.564Z,8.15
2017-10-05T00:41:25.580Z,8.05
2017-10-05T00:41:30.586Z,7.93
2017-10-05T00:41:35.612Z,7.73
2017-10-05T00:41:39.860Z,7.75
2017-10-05T00:41:44.132Z,6.90
2017-10-05T00:41:48.379Z,6.70
2017-10-05T00:41:53.424Z,6.40
2017-10-05T00:41:57.682Z,6.50
2017-10-05T00:42:01.935Z,7.00
2017-10-05T00:42:06.951Z,7.80
2017-10-05T00:42:11.971Z,7.73
2017-10-05T00:42:17.018Z,8.43
2017-10-05T00:42:21.296Z,9.07
2017-10-05T00:42:25.554Z,9.05
2017-10-05T00:42:29.869Z,9.07
2017-10-05T00:42:34.099Z,9.20
2017-10-05T00:42:38.356Z,9.30
2017-10-05T00:42:42.608Z,9.60
2017-10-05T00:42:46.855Z,9.65
2017-10-05T00:42:51.156Z,10.00
2017-10-05T00:42:55.419Z,10.00
2017-10-05T00:42:59.695Z,9.60
2017-10-05T00:43:04.709Z,8.90
2017-10-05T00:43:09.741Z,8.77
2017-10-05T00:43:14.741Z,8.23
2017-10-05T00:43:19.770Z,7.60
2017-10-05T00:43:24.795Z,8.30
2017-10-05T00:43:29.806Z,8.83
2017-10-05T00:43:34.823Z,8.83
2017-10-05T00:43:39.821Z,9.03
2017-10-05T00:43:44.082Z,10.23
2017-10-05T00:43:48.310Z,10.37
2017-10-05T00:43:52.549Z,9.95
2017-10-05T00:43:56.860Z,10.50
2017-10-05T00:44:01.859Z,10.50
2017-10-05T00:44:06.134Z,10.30
2017-10-05T00:44:10.394Z,10.00
2017-10-05T00:44:14.625Z,10.20
2017-10-05T00:44:18.889Z,10.45
2017-10-05T00:44:23.180Z,10.40
2017-10-05T00:44:27.439Z,9.90
2017-10-05T00:44:31.670Z,9.90
2017-10-05T00:44:35.910Z,9.40
2017-10-05T00:44:40.166Z,9.13
2017-10-05T00:44:45.177Z,8.35
2017-10-05T00:44:50.216Z,8.60
2017-10-05T00:44:54.450Z,9.37
2017-10-05T00:44:58.700Z,9.30
2017-10-05T00:45:03.748Z,9.30
2017-10-05T00:45:07.974Z,9.50
2017-10-05T00:45:12.220Z,9.25
2017-10-05T00:45:17.228Z,9.10
2017-10-05T00:45:22.244Z,8.07
2017-10-05T00:45:27.248Z,7.87
2017-10-05T00:45:32.221Z,7.77
2017-10-05T00:45:36.493Z,7.77
2017-10-05T00:45:40.752Z,7.55
2017-10-05T00:45:44.990Z,7.43
2017-10-05T00:45:50.102Z,7.35
2017-10-05T00:45:55.116Z,6.77
2017-10-05T00:46:00.133Z,6.87
2017-10-05T00:46:05.135Z,7.30
2017-10-05T00:46:09.388Z,8.20
2017-10-05T00:46:13.635Z,9.60
2017-10-05T00:46:17.890Z,10.30
2017-10-05T00:46:22.145Z,10.35
2017-10-05T00:46:27.180Z,10.20
2017-10-05T00:46:32.177Z,10.40
2017-10-05T00:46:36.433Z,10.67
2017-10-05T00:46:40.695Z,10.33
2017-10-05T00:46:45.723Z,10.40
2017-10-05T00:46:50.042Z,10.03
2017-10-05T00:46:54.275Z,10.00
2017-10-05T00:46:58.514Z,9.57
2017-10-05T00:47:02.771Z,9.20
2017-10-05T00:47:07.038Z,8.50
2017-10-05T00:47:11.288Z,7.85
2017-10-05T00:47:15.533Z,6.67
2017-10-05T00:47:19.763Z,7.10
2017-10-05T00:47:24.004Z,7.70
2017-10-05T00:47:28.248Z,8.60
2017-10-05T00:47:32.507Z,8.33
2017-10-05T00:47:36.877Z,8.70
2017-10-05T00:47:41.105Z,8.85
2017-10-05T00:47:46.113Z,9.03
2017-10-05T00:47:50.408Z,9.20
2017-10-05T00:47:54.659Z,9.55
2017-10-05T00:47:58.899Z,9.90
2017-10-05T00:48:03.169Z,9.85
2017-10-05T00:48:07.424Z,9.90
2017-10-05T00:48:11.659Z,10.35
2017-10-05T00:48:15.973Z,10.60
2017-10-05T00:48:20.224Z,10.43
2017-10-05T00:48:24.453Z,10.10
2017-10-05T00:48:28.714Z,9.35
2017-10-05T00:48:32.925Z,9.50
2017-10-05T00:48:37.998Z,9.27
2017-10-05T00:48:42.271Z,9.27
2017-10-05T00:48:47.297Z,9.30
2017-10-05T00:48:52.910Z,8.90
2017-10-05T00:48:57.952Z,8.68
2017-10-05T00:49:02.211Z,9.00
2017-10-05T00:49:06.446Z,9.00
2017-10-05T00:49:10.685Z,8.55
2017-10-05T00:49:14.925Z,8.57
2017-10-05T00:49:19.224Z,8.30
2017-10-05T00:49:24.245Z,7.85
2017-10-05T00:49:29.257Z,8.23
2017-10-05T00:49:34.296Z,8.80
2017-10-05T00:49:38.556Z,8.30
2017-10-05T00:49:42.827Z,8.10
2017-10-05T00:49:47.087Z,8.25
2017-10-05T00:49:52.095Z,8.20
2017-10-05T00:49:57.102Z,7.90
2017-10-05T00:50:01.344Z,7.33
2017-10-05T00:50:05.617Z,7.60
2017-10-05T00:50:09.940Z,7.57
2017-10-05T00:50:14.941Z,7.30
2017-10-05T00:50:19.198Z,7.33
2017-10-05T00:50:23.641Z,8.10
2017-10-05T00:50:27.873Z,8.43
2017-10-05T00:50:32.108Z,7.75
2017-10-05T00:50:36.392Z,8.30
2017-10-05T00:50:40.638Z,8.23
2017-10-05T00:50:44.903Z,7.90
2017-10-05T00:50:49.140Z,7.80
2017-10-05T00:50:54.134Z,8.20
2017-10-05T00:50:58.392Z,8.53
2017-10-05T00:51:02.692Z,8.43
2017-10-05T00:51:06.944Z,8.20
2017-10-05T00:51:11.294Z,8.00
2017-10-05T00:51:15.567Z,8.27
2017-10-05T00:51:20.569Z,9.15
2017-10-05T00:51:24.828Z,8.07
2017-10-05T00:51:29.091Z,8.10
2017-10-05T00:51:34.074Z,8.20
2017-10-05T00:51:38.326Z,8.27
2017-10-05T00:51:42.574Z,8.75
2017-10-05T00:51:46.810Z,8.90
2017-10-05T00:51:51.259Z,8.85
2017-10-05T00:51:55.504Z,8.30
2017-10-05T00:51:59.756Z,8.35
2017-10-05T00:52:04.783Z,8.50
2017-10-05T00:52:09.028Z,8.53
2017-10-05T00:52:14.023Z,8.87
2017-10-05T00:52:18.289Z,7.83
2017-10-05T00:52:22.597Z,7.50
2017-10-05T00:52:26.868Z,7.70
2017-10-05T00:52:31.129Z,7.83
2017-10-05T00:52:35.376Z,7.85
2017-10-05T00:52:39.623Z,7.15
2017-10-05T00:52:43.841Z,6.90
2017-10-05T00:52:48.846Z,6.80
2017-10-05T00:52:53.115Z,6.80
2017-10-05T00:52:57.363Z,7.15
2017-10-05T00:53:02.383Z,6.95
2017-10-05T00:53:06.616Z,7.37
2017-10-05T00:53:10.858Z,7.50
2017-10-05T00:53:15.128Z,7.60
2017-10-05T00:53:19.394Z,7.90
2017-10-05T00:53:23.669Z,8.15
2017-10-05T00:53:27.919Z,8.03
2017-10-05T00:53:33.714Z,7.85
2017-10-05T00:53:38.727Z,7.75
2017-10-05T00:53:43.735Z,7.83
2017-10-05T00:53:48.015Z,7.90
2017-10-05T00:53:52.266Z,8.30
2017-10-05T00:53:57.313Z,8.15
2017-10-05T00:54:01.563Z,8.73
2017-10-05T00:54:05.821Z,8.63
2017-10-05T00:54:10.106Z,8.40
2017-10-05T00:54:14.345Z,8.65
2017-10-05T00:54:18.604Z,8.65
2017-10-05T00:54:22.870Z,8.17
2017-10-05T00:54:27.878Z,8.65
2017-10-05T00:54:32.204Z,8.70
2017-10-05T00:54:36.452Z,8.70
2017-10-05T00:54:40.703Z,8.77
2017-10-05T00:54:44.948Z,8.75
2017-10-05T00:54:49.969Z,9.05
2017-10-05T00:54:54.248Z,9.10
2017-10-05T00:54:58.490Z,8.70
2017-10-05T00:55:02.797Z,8.53
2017-10-05T00:55:07.044Z,8.70
2017-10-05T00:55:11.288Z,8.60
2017-10-05T00:55:15.547Z,8.00
2017-10-05T00:55:19.783Z,7.90
2017-10-05T00:55:24.043Z,7.85
2017-10-05T00:55:28.283Z,7.15
2017-10-05T00:55:32.614Z,6.90
2017-10-05T00:55:37.636Z,7.05
2017-10-05T00:55:42.628Z,7.20
2017-10-05T00:55:46.887Z,7.00
2017-10-05T00:55:51.137Z,6.65
2017-10-05T00:55:56.319Z,6.57
2017-10-05T00:56:00.666Z,6.70
2017-10-05T00:56:04.932Z,7.35
2017-10-05T00:56:09.219Z,7.75
2017-10-05T00:56:13.467Z,8.20
2017-10-05T00:56:17.710Z,8.35
2017-10-05T00:56:21.963Z,8.65
2017-10-05T00:56:26.225Z,9.00
2017-10-05T00:56:30.524Z,9.00
2017-10-05T00:56:34.756Z,9.35
2017-10-05T00:56:39.100Z,9.23
2017-10-05T00:56:43.403Z,9.10
2017-10-05T00:56:47.643Z,9.10
2017-10-05T00:56:51.892Z,9.20
2017-10-05T00:56:56.299Z,10.00
2017-10-05T00:57:00.530Z,9.90
2017-10-05T00:57:04.772Z,8.85
2017-10-05T00:57:09.037Z,8.77
2017-10-05T00:57:13.306Z,8.70
2017-10-05T00:57:17.548Z,9.40
2017-10-05T00:57:21.825Z,9.35
2017-10-05T00:57:26.093Z,9.30
2017-10-05T00:57:30.358Z,9.50
2017-10-05T00:57:35.431Z,9.30
2017-10-05T00:57:39.684Z,9.23
2017-10-05T00:57:44.344Z,10.23
2017-10-05T00:57:48.586Z,10.45
2017-10-05T00:57:52.829Z,10.37
2017-10-05T00:57:57.087Z,10.05
2017-10-05T00:58:01.339Z,10.70
2017-10-05T00:58:05.597Z,10.70
2017-10-05T00:58:09.889Z,10.20
2017-10-05T00:58:14.136Z,9.85
2017-10-05T00:58:18.388Z,9.15
2017-10-05T00:58:22.642Z,9.20
2017-10-05T00:58:26.919Z,9.23
2017-10-05T00:58:31.948Z,9.20
2017-10-05T00:58:36.956Z,9.80
2017-10-05T00:58:42.000Z,9.53
2017-10-05T00:58:46.229Z,8.77
2017-10-05T00:58:50.524Z,8.45
2017-10-05T00:58:55.658Z,8.35
2017-10-05T00:58:59.890Z,8.60
2017-10-05T00:59:04.907Z,8.75
2017-10-05T00:59:09.952Z,9.70
2017-10-05T00:59:14.182Z,9.77
2017-10-05T00:59:18.449Z,10.40
2017-10-05T00:59:22.712Z,10.63
2017-10-05T00:59:26.978Z,11.10